createdAt,value
2022-09-15T00:01:07.284Z,13.65
2022-09-15T00:03:35.016Z,13.05
2022-09-15T00:06:02.203Z,13.25
2022-09-15T00:08:30.354Z,14.27
2022-09-15T00:11:10.892Z,13.43
2022-09-15T00:13:39.851Z,13.93
2022-09-15T00:16:08.521Z,13.38
2022-09-15T00:18:37.192Z,12.85
2022-09-15T00:21:14.084Z,13.73
2022-09-15T00:23:41.300Z,13.13
2022-09-15T00:26:15.342Z,13.00
2022-09-15T00:28:43.391Z,11.98
2022-09-15T00:31:14.252Z,11.63
2022-09-15T00:33:41.982Z,11.10
2022-09-15T00:36:12.014Z,11.55
2022-09-15T00:38:39.685Z,11.43
2022-09-15T00:41:08.901Z,10.52
2022-09-15T00:44:01.602Z,10.98
2022-09-15T00:46:39.754Z,11.25
2022-09-15T00:49:16.563Z,11.00
2022-09-15T00:52:08.655Z,9.68
2022-09-15T00:54:47.719Z,9.18
2022-09-15T00:57:28.655Z,9.90
2022-09-15T00:59:57.306Z,9.55
2022-09-15T01:02:35.499Z,10.20
2022-09-15T01:05:07.601Z,9.93
2022-09-15T01:08:03.557Z,10.02
2022-09-15T01:10:34.688Z,9.70
2022-09-15T01:13:04.717Z,10.02
2022-09-15T01:15:57.883Z,10.77
2022-09-15T01:18:37.193Z,10.45
2022-09-15T01:21:21.347Z,8.75
2022-09-15T01:23:58.939Z,10.60
2022-09-15T01:27:30.574Z,9.55
2022-09-15T01:30:10.421Z,10.02
2022-09-15T01:33:05.430Z,10.30
2022-09-15T01:36:06.268Z,9.70
2022-09-15T01:39:01.162Z,9.43
2022-09-15T01:41:37.894Z,9.85
2022-09-15T01:44:22.494Z,9.07
2022-09-15T01:46:54.871Z,9.00
2022-09-15T01:49:28.311Z,8.82
2022-09-15T01:51:55.556Z,9.70
2022-09-15T01:54:28.381Z,9.13
2022-09-15T01:56:56.391Z,9.20
2022-09-15T01:59:23.540Z,8.98
2022-09-15T02:02:02.857Z,8.63
2022-09-15T02:05:06.547Z,8.63
2022-09-15T02:07:39.395Z,8.98
2022-09-15T02:10:15.554Z,8.20
2022-09-15T02:12:52.000Z,8.10
2022-09-15T02:15:43.864Z,8.13
2022-09-15T02:18:14.885Z,8.15
2022-09-15T02:20:52.566Z,6.93
2022-09-15T02:23:30.850Z,7.75
2022-09-15T02:26:06.011Z,7.10
2022-09-15T02:28:37.111Z,6.40
2022-09-15T02:31:07.957Z,7.00
2022-09-15T02:33:40.838Z,7.07
2022-09-15T02:36:11.185Z,6.68
2022-09-15T02:38:46.572Z,6.75
2022-09-15T02:41:14.737Z,6.68
2022-09-15T02:43:49.464Z,6.32
2022-09-15T02:46:20.245Z,6.90
2022-09-15T02:48:47.828Z,6.90
2022-09-15T02:51:16.680Z,6.40
2022-09-15T02:53:44.786Z,7.47
2022-09-15T02:56:12.079Z,7.30
2022-09-15T02:58:39.228Z,8.02
2022-09-15T03:01:08.180Z,7.38
2022-09-15T03:03:37.904Z,8.32
2022-09-15T03:06:18.068Z,8.43
2022-09-15T03:11:16.220Z,7.68
2022-09-15T03:13:43.345Z,8.63
2022-09-15T03:16:12.577Z,8.00
2022-09-15T03:18:40.012Z,8.10
2022-09-15T03:21:09.919Z,8.52
2022-09-15T03:23:37.167Z,8.80
2022-09-15T03:26:05.922Z,9.52
2022-09-15T03:28:33.012Z,9.43
2022-09-15T03:31:00.139Z,8.88
2022-09-15T03:33:27.375Z,9.50
2022-09-15T03:35:54.436Z,9.18
2022-09-15T03:38:22.148Z,9.18
2022-09-15T03:41:03.033Z,9.50
2022-09-15T03:43:31.352Z,9.13
2022-09-15T03:45:59.584Z,9.52
2022-09-15T03:48:27.861Z,8.90
2022-09-15T03:50:54.913Z,10.02
2022-09-15T03:53:22.526Z,10.07
2022-09-15T03:55:49.961Z,9.15
2022-09-15T03:58:18.645Z,9.57
2022-09-15T04:00:46.808Z,10.05
2022-09-15T04:03:14.450Z,8.95
2022-09-15T04:05:44.827Z,9.27
2022-09-15T04:08:13.386Z,10.38
2022-09-15T04:10:41.341Z,9.63
2022-09-15T04:13:08.844Z,9.15
2022-09-15T04:15:36.098Z,10.77
2022-09-15T04:18:05.012Z,10.35
2022-09-15T04:20:32.306Z,10.05
2022-09-15T04:22:59.485Z,9.35
2022-09-15T04:25:28.033Z,10.23
2022-09-15T04:27:56.326Z,9.30
2022-09-15T04:30:23.701Z,9.63
2022-09-15T04:32:51.935Z,10.02
2022-09-15T04:35:19.023Z,9.75
2022-09-15T04:37:46.111Z,8.82
2022-09-15T04:40:13.248Z,9.25
2022-09-15T04:42:40.329Z,9.93
2022-09-15T04:45:08.001Z,10.27
2022-09-15T04:47:35.054Z,9.90
2022-09-15T04:50:02.246Z,9.73
2022-09-15T04:52:32.768Z,9.93
2022-09-15T04:55:00.604Z,10.30
2022-09-15T04:57:27.878Z,10.15
2022-09-15T04:59:54.888Z,10.60
2022-09-15T05:02:22.050Z,11.52
2022-09-15T05:04:50.275Z,10.27
2022-09-15T05:07:18.686Z,9.65
2022-09-15T05:09:45.964Z,9.80
2022-09-15T05:12:13.113Z,9.75
2022-09-15T05:14:40.126Z,9.40
2022-09-15T05:17:07.085Z,9.90
2022-09-15T05:19:34.326Z,10.07
2022-09-15T05:22:01.365Z,9.77
2022-09-15T05:24:28.490Z,9.15
2022-09-15T05:26:55.583Z,8.98
2022-09-15T05:29:22.771Z,8.77
2022-09-15T05:31:49.831Z,8.95
2022-09-15T05:34:16.978Z,9.35
2022-09-15T05:36:44.144Z,10.20
2022-09-15T05:39:11.213Z,8.88
2022-09-15T05:41:38.257Z,8.05
2022-09-15T05:44:05.373Z,8.13
2022-09-15T05:46:32.677Z,9.38
2022-09-15T05:48:59.760Z,8.80
2022-09-15T05:51:26.824Z,8.10
2022-09-15T05:53:53.759Z,9.38
2022-09-15T05:56:20.838Z,8.93
2022-09-15T05:58:49.103Z,9.10
2022-09-15T06:01:27.888Z,9.43
2022-09-15T06:03:56.045Z,7.82
2022-09-15T06:06:24.604Z,8.98
2022-09-15T06:08:58.154Z,8.52
2022-09-15T06:11:33.876Z,8.98
2022-09-15T06:14:03.297Z,8.40
2022-09-15T06:16:33.461Z,8.48
2022-09-15T06:19:03.819Z,9.32
2022-09-15T06:21:32.543Z,9.38
2022-09-15T06:24:03.455Z,8.75
2022-09-15T06:26:30.843Z,9.07
2022-09-15T06:29:00.613Z,11.32
2022-09-15T06:31:29.666Z,9.65
2022-09-15T06:33:57.969Z,9.45
2022-09-15T06:36:28.168Z,9.18
2022-09-15T06:38:56.327Z,9.25
2022-09-15T06:41:23.712Z,9.63
2022-09-15T06:43:51.025Z,10.02
2022-09-15T06:46:21.089Z,9.18
2022-09-15T06:48:48.977Z,8.15
2022-09-15T06:51:17.752Z,7.70
2022-09-15T06:53:45.196Z,7.78
2022-09-15T06:56:14.645Z,7.45
2022-09-15T06:58:43.452Z,7.25
2022-09-15T07:01:15.081Z,6.53
2022-09-15T07:03:44.311Z,6.82
2022-09-15T07:06:15.011Z,6.88
2022-09-15T07:08:42.480Z,7.40
2022-09-15T07:11:10.451Z,6.78
2022-09-15T07:13:37.945Z,7.40
2022-09-15T07:16:08.028Z,6.90
2022-09-15T07:18:39.712Z,7.35
2022-09-15T07:21:12.664Z,6.50
2022-09-15T07:23:40.216Z,6.20
2022-09-15T07:26:17.753Z,7.55
2022-09-15T07:28:47.304Z,6.65
2022-09-15T07:31:17.833Z,6.65
2022-09-15T07:33:48.157Z,6.40
2022-09-15T07:36:15.685Z,6.32
2022-09-15T07:38:48.209Z,5.60
2022-09-15T07:41:21.034Z,5.55
2022-09-15T07:43:49.480Z,6.22
2022-09-15T07:46:18.195Z,6.30
2022-09-15T07:48:49.885Z,6.60
2022-09-15T07:51:17.688Z,6.57
2022-09-15T07:53:46.629Z,6.40
2022-09-15T07:56:13.925Z,6.00
2022-09-15T07:58:41.018Z,6.05
2022-09-15T08:01:14.889Z,6.38
2022-09-15T08:03:43.931Z,6.53
2022-09-15T08:06:11.688Z,6.28
2022-09-15T08:08:40.003Z,6.20
2022-09-15T08:11:17.684Z,6.68
2022-09-15T08:13:47.673Z,5.72
2022-09-15T08:16:17.164Z,7.18
2022-09-15T08:18:44.801Z,6.47
2022-09-15T08:21:14.475Z,6.97
2022-09-15T08:23:41.708Z,7.05
2022-09-15T08:26:14.103Z,7.07
2022-09-15T08:28:42.496Z,6.57
2022-09-15T08:31:12.806Z,7.68
2022-09-15T08:33:44.784Z,7.13
2022-09-15T08:36:13.586Z,7.57
2022-09-15T08:38:41.633Z,8.30
2022-09-15T08:41:17.483Z,8.35
2022-09-15T08:44:16.856Z,8.88
2022-09-15T08:46:53.934Z,9.60
2022-09-15T08:49:52.928Z,9.05
2022-09-15T08:52:28.779Z,8.70
2022-09-15T08:54:58.207Z,9.15
2022-09-15T08:57:26.295Z,9.80
2022-09-15T08:59:55.006Z,10.32
2022-09-15T09:02:58.423Z,9.50
2022-09-15T09:05:41.762Z,9.43
2022-09-15T09:08:39.717Z,10.25
2022-09-15T09:11:24.621Z,9.95
2022-09-15T09:14:35.488Z,11.27
2022-09-15T09:17:21.331Z,12.48
2022-09-15T09:19:55.606Z,12.90
2022-09-15T09:22:32.001Z,13.57
2022-09-15T09:25:11.699Z,13.57
2022-09-15T09:27:43.629Z,13.50
2022-09-15T09:30:17.465Z,12.77
2022-09-15T09:32:51.283Z,12.15
2022-09-15T09:35:33.746Z,11.63
2022-09-15T09:38:02.640Z,10.50
2022-09-15T09:40:31.793Z,10.32
2022-09-15T09:43:01.097Z,9.65
2022-09-15T09:45:28.088Z,8.18
2022-09-15T09:48:01.817Z,9.48
2022-09-15T09:50:39.467Z,8.68
2022-09-15T09:53:30.032Z,8.07
2022-09-15T09:56:12.156Z,7.10
2022-09-15T09:58:39.315Z,7.82
2022-09-15T10:01:20.791Z,7.30
2022-09-15T10:03:47.935Z,7.30
2022-09-15T10:06:22.319Z,7.30
2022-09-15T10:08:56.085Z,8.30
2022-09-15T10:11:40.101Z,7.15
2022-09-15T10:14:07.321Z,6.97
2022-09-15T10:16:34.451Z,7.13
2022-09-15T10:19:02.163Z,6.78
2022-09-15T10:21:29.211Z,6.00
2022-09-15T10:23:56.191Z,6.75
2022-09-15T10:26:34.770Z,6.50
2022-09-15T10:29:19.525Z,5.93
2022-09-15T10:31:46.787Z,6.55
2022-09-15T10:34:32.545Z,6.53
2022-09-15T10:37:31.574Z,7.63
2022-09-15T10:40:01.410Z,7.97
2022-09-15T10:42:53.010Z,7.70
2022-09-15T10:45:23.081Z,7.30
2022-09-15T10:48:20.973Z,7.20
2022-09-15T10:50:56.241Z,7.20
2022-09-15T10:53:39.038Z,7.07
2022-09-15T10:56:33.233Z,6.88
2022-09-15T10:59:13.082Z,6.60
2022-09-15T11:02:21.681Z,7.13
2022-09-15T11:05:11.143Z,7.47
2022-09-15T11:07:45.387Z,7.38
2022-09-15T11:10:32.399Z,8.18
2022-09-15T11:13:29.465Z,7.53
2022-09-15T11:16:11.956Z,7.80
2022-09-15T11:19:21.601Z,8.50
2022-09-15T11:21:55.035Z,7.20
2022-09-15T11:24:41.032Z,6.57
2022-09-15T11:27:33.430Z,7.43
2022-09-15T11:30:20.464Z,6.00
2022-09-15T11:33:01.571Z,6.07
2022-09-15T11:35:53.987Z,5.40
2022-09-15T11:38:20.999Z,5.35
2022-09-15T11:40:59.367Z,6.03
2022-09-15T11:43:46.301Z,5.43
2022-09-15T11:46:25.929Z,5.53
2022-09-15T11:49:06.153Z,5.03
2022-09-15T11:51:43.136Z,5.60
2022-09-15T11:54:28.207Z,4.88
2022-09-15T11:57:00.294Z,4.38
2022-09-15T12:00:13.876Z,4.50
2022-09-15T12:03:02.139Z,4.65
2022-09-15T12:05:40.050Z,4.57
2022-09-15T12:08:16.946Z,3.90
2022-09-15T12:13:18.833Z,4.35
2022-09-15T12:15:47.953Z,4.22
2022-09-15T12:18:46.668Z,4.28
2022-09-15T12:21:30.418Z,4.10
2022-09-15T12:24:07.934Z,3.58
2022-09-15T12:26:35.574Z,3.22
2022-09-15T12:29:23.809Z,3.00
2022-09-15T12:32:29.875Z,3.20
2022-09-15T12:35:13.500Z,3.03
2022-09-15T12:37:46.490Z,3.00
2022-09-15T12:40:37.875Z,3.30
2022-09-15T12:43:25.790Z,3.47
2022-09-15T12:46:00.005Z,3.50
2022-09-15T12:48:36.795Z,3.78
2022-09-15T12:51:07.555Z,3.35
2022-09-15T12:53:41.654Z,3.15
2022-09-15T12:56:41.980Z,3.00
2022-09-15T12:59:15.154Z,3.75
2022-09-15T13:01:49.171Z,3.60
2022-09-15T13:04:45.057Z,3.88
2022-09-15T13:07:21.199Z,3.65
2022-09-15T13:09:59.117Z,3.72
2022-09-15T13:12:32.832Z,3.80
2022-09-15T13:15:03.928Z,4.00
2022-09-15T13:17:33.682Z,3.72
2022-09-15T13:20:10.140Z,4.15
2022-09-15T13:22:44.575Z,3.95
2022-09-15T13:25:13.895Z,3.83
2022-09-15T13:27:46.231Z,4.25
2022-09-15T13:30:36.223Z,3.97
2022-09-15T13:39:37.105Z,3.70
2022-09-15T13:42:18.993Z,4.53
2022-09-15T13:45:07.868Z,4.80
2022-09-15T13:47:50.439Z,4.00
2022-09-15T13:50:24.076Z,3.95
2022-09-15T13:53:12.921Z,4.28
2022-09-15T13:55:43.521Z,3.80
2022-09-15T14:01:05.827Z,3.35
2022-09-15T14:03:46.227Z,3.70
2022-09-15T14:06:33.845Z,3.65
2022-09-15T14:09:27.632Z,3.55
2022-09-15T14:12:00.436Z,3.50
2022-09-15T14:14:27.429Z,3.38
2022-09-15T14:16:56.702Z,3.70
2022-09-15T14:19:35.513Z,3.72
2022-09-15T14:22:20.540Z,3.50
2022-09-15T14:24:48.091Z,3.65
2022-09-15T14:27:26.694Z,3.42
2022-09-15T14:29:55.464Z,3.25
2022-09-15T14:32:22.700Z,3.85
2022-09-15T14:34:51.286Z,3.40
2022-09-15T14:37:20.963Z,3.30
2022-09-15T14:39:56.540Z,2.88
2022-09-15T14:42:33.979Z,3.20
2022-09-15T14:48:15.654Z,3.17
2022-09-15T14:50:45.117Z,3.53
2022-09-15T14:53:20.534Z,3.67
2022-09-15T14:56:00.611Z,3.40
2022-09-15T14:58:38.722Z,3.25
2022-09-15T15:01:33.098Z,3.80
2022-09-15T15:04:03.037Z,3.85
2022-09-15T15:06:58.916Z,3.83
2022-09-15T15:09:48.994Z,4.25
2022-09-15T15:12:25.393Z,3.78
2022-09-15T15:14:55.510Z,4.05
2022-09-15T15:17:35.913Z,4.25
2022-09-15T15:20:06.097Z,4.53
2022-09-15T15:22:33.689Z,4.50
2022-09-15T15:25:01.413Z,4.10
2022-09-15T15:27:34.515Z,4.43
2022-09-15T15:30:26.724Z,4.35
2022-09-15T15:32:55.216Z,4.82
2022-09-15T15:35:22.818Z,4.55
2022-09-15T15:38:04.939Z,4.40
2022-09-15T15:40:34.401Z,4.38
2022-09-15T15:43:03.631Z,4.45
2022-09-15T15:45:34.015Z,3.78
2022-09-15T15:48:03.321Z,4.03
2022-09-15T15:50:32.930Z,4.47
2022-09-15T15:53:01.080Z,4.13
2022-09-15T15:55:38.429Z,4.22
2022-09-15T15:58:06.163Z,3.70
2022-09-15T16:00:44.900Z,4.03
2022-09-15T16:03:14.967Z,3.63
2022-09-15T16:05:45.427Z,3.70
2022-09-15T16:08:29.038Z,3.40
2022-09-15T16:10:57.401Z,3.35
2022-09-15T16:13:25.308Z,3.40
2022-09-15T16:16:00.422Z,3.42
2022-09-15T16:18:29.034Z,3.63
2022-09-15T16:20:56.066Z,3.20
2022-09-15T16:23:23.678Z,3.80
2022-09-15T16:26:05.645Z,3.58
2022-09-15T16:28:32.925Z,3.83
2022-09-15T16:31:00.206Z,3.38
2022-09-15T16:33:27.450Z,3.55
2022-09-15T16:36:09.106Z,4.00
2022-09-15T16:38:36.901Z,3.88
2022-09-15T16:41:10.623Z,3.70
2022-09-15T16:43:37.715Z,4.35
2022-09-15T16:46:06.438Z,4.15
2022-09-15T16:48:34.420Z,4.15
2022-09-15T16:51:23.032Z,4.45
2022-09-15T16:53:51.207Z,4.20
2022-09-15T16:56:19.350Z,4.10
2022-09-15T16:58:46.358Z,4.07
2022-09-15T17:01:21.497Z,4.68
2022-09-15T17:03:48.791Z,4.07
2022-09-15T17:06:17.993Z,4.22
2022-09-15T17:08:45.726Z,4.88
2022-09-15T17:11:16.826Z,4.13
2022-09-15T17:13:45.374Z,4.10
2022-09-15T17:16:15.013Z,4.40
2022-09-15T17:18:42.229Z,4.22
2022-09-15T17:21:12.999Z,4.50
2022-09-15T17:23:43.274Z,5.05
2022-09-15T17:26:13.057Z,4.85
2022-09-15T17:28:41.215Z,4.55
2022-09-15T17:31:24.744Z,5.05
2022-09-15T17:33:53.053Z,4.53
2022-09-15T17:36:20.722Z,4.00
2022-09-15T17:38:50.863Z,4.80
2022-09-15T17:41:20.556Z,4.13
2022-09-15T17:43:48.501Z,4.35
2022-09-15T17:46:18.837Z,4.78
2022-09-15T17:48:46.643Z,4.65
2022-09-15T17:51:17.490Z,4.75
2022-09-15T17:53:48.132Z,5.00
2022-09-15T17:56:15.570Z,5.00
2022-09-15T17:58:45.564Z,5.40
2022-09-15T18:01:14.088Z,4.80
2022-09-15T18:03:43.851Z,5.13
2022-09-15T18:06:11.768Z,5.20
2022-09-15T18:08:39.133Z,5.28
2022-09-15T18:11:07.336Z,5.20
2022-09-15T18:13:34.852Z,4.40
2022-09-15T18:16:13.076Z,4.88
2022-09-15T18:18:41.100Z,4.72
2022-09-15T18:21:12.217Z,4.85
2022-09-15T18:23:42.514Z,4.85
2022-09-15T18:26:09.834Z,4.70
2022-09-15T18:28:37.232Z,4.55
2022-09-15T18:31:04.657Z,5.68
2022-09-15T18:33:32.018Z,5.28
2022-09-15T18:35:59.253Z,5.72
2022-09-15T18:38:27.054Z,6.22
2022-09-15T18:40:56.654Z,5.85
2022-09-15T18:43:25.505Z,5.50
2022-09-15T18:45:57.960Z,5.68
2022-09-15T18:48:25.430Z,5.72
2022-09-15T18:50:54.631Z,6.22
2022-09-15T18:53:21.714Z,6.05
2022-09-15T18:55:49.293Z,9.82
2022-09-15T18:58:17.840Z,7.03
2022-09-15T19:00:45.887Z,6.53
2022-09-15T19:03:14.450Z,5.50
2022-09-15T19:05:41.871Z,6.63
2022-09-15T19:08:09.653Z,6.60
2022-09-15T19:10:39.690Z,6.47
2022-09-15T19:13:06.907Z,6.20
2022-09-15T19:15:34.724Z,6.60
2022-09-15T19:18:02.180Z,6.40
2022-09-15T19:20:29.718Z,6.70
2022-09-15T19:22:57.982Z,7.20
2022-09-15T19:25:25.195Z,7.50
2022-09-15T19:27:52.649Z,7.30
2022-09-15T19:30:19.862Z,8.00
2022-09-15T19:32:47.022Z,7.45
2022-09-15T19:35:14.458Z,6.57
2022-09-15T19:37:42.682Z,7.03
2022-09-15T19:40:13.354Z,7.25
2022-09-15T19:42:42.431Z,7.32
2022-09-15T19:45:11.482Z,6.95
2022-09-15T19:47:39.868Z,7.47
2022-09-15T19:50:09.284Z,7.85
2022-09-15T19:52:36.816Z,7.95
2022-09-15T19:55:06.878Z,8.15
2022-09-15T19:57:34.168Z,7.65
2022-09-15T20:00:01.510Z,8.43
2022-09-15T20:02:32.229Z,6.57
2022-09-15T20:04:59.404Z,8.07
2022-09-15T20:07:26.392Z,7.68
2022-09-15T20:09:53.535Z,7.43
2022-09-15T20:14:52.784Z,7.82
2022-09-15T20:17:19.990Z,7.60
2022-09-15T20:19:47.219Z,7.50
2022-09-15T20:22:14.777Z,8.10
2022-09-15T20:24:41.909Z,7.65
2022-09-15T20:27:09.103Z,7.15
2022-09-15T20:29:36.270Z,6.68
2022-09-15T20:32:03.397Z,7.18
2022-09-15T20:34:30.561Z,6.13
2022-09-15T20:36:58.047Z,6.30
2022-09-15T20:39:25.995Z,6.78
2022-09-15T20:41:53.140Z,6.22
2022-09-15T20:44:20.263Z,7.22
2022-09-15T20:46:47.644Z,6.72
2022-09-15T20:49:14.814Z,6.63
2022-09-15T20:51:42.390Z,6.40
2022-09-15T20:54:11.021Z,6.22
2022-09-15T20:56:38.372Z,7.32
2022-09-15T20:59:06.361Z,7.38
2022-09-15T21:01:36.907Z,7.25
2022-09-15T21:04:05.982Z,6.82
2022-09-15T21:06:35.728Z,6.82
2022-09-15T21:09:03.063Z,6.80
2022-09-15T21:11:30.695Z,6.72
2022-09-15T21:13:58.856Z,6.45
2022-09-15T21:16:28.674Z,6.50
2022-09-15T21:18:57.658Z,7.05
2022-09-15T21:21:27.501Z,6.75
2022-09-15T21:23:56.865Z,7.38
2022-09-15T21:26:26.330Z,6.78
2022-09-15T21:28:54.789Z,6.85
2022-09-15T21:31:26.377Z,7.60
2022-09-15T21:33:54.632Z,6.95
2022-09-15T21:36:27.111Z,6.88
2022-09-15T21:38:56.508Z,7.03
2022-09-15T21:41:31.921Z,8.02
2022-09-15T21:44:00.812Z,7.70
2022-09-15T21:46:30.512Z,6.93
2022-09-15T21:48:59.563Z,7.25
2022-09-15T21:51:28.871Z,7.93
2022-09-15T21:53:57.927Z,7.68
2022-09-15T21:56:25.893Z,7.95
2022-09-15T21:58:53.163Z,7.85
2022-09-15T22:01:23.665Z,7.53
2022-09-15T22:04:01.814Z,7.75
2022-09-15T22:06:32.134Z,7.03
2022-09-15T22:09:23.246Z,7.90
2022-09-15T22:11:50.360Z,7.50
2022-09-15T22:14:17.507Z,8.55
2022-09-15T22:16:44.729Z,8.13
2022-09-15T22:19:12.960Z,7.88
2022-09-15T22:21:42.166Z,8.32
2022-09-15T22:24:11.552Z,8.18
2022-09-15T22:26:39.827Z,8.68
2022-09-15T22:29:07.137Z,7.93
2022-09-15T22:31:35.380Z,8.48
2022-09-15T22:34:03.221Z,8.30
2022-09-15T22:36:31.482Z,8.73
2022-09-15T22:39:04.520Z,7.78
2022-09-15T22:41:37.514Z,8.63
2022-09-15T22:44:05.993Z,8.98
2022-09-15T22:46:33.255Z,8.75
2022-09-15T22:49:00.499Z,8.48
2022-09-15T22:51:27.938Z,7.80
2022-09-15T22:53:57.510Z,8.35
2022-09-15T22:56:26.537Z,9.63
2022-09-15T22:58:55.057Z,8.57
2022-09-15T23:01:27.815Z,7.90
2022-09-15T23:03:57.639Z,8.80
2022-09-15T23:06:27.045Z,7.85
2022-09-15T23:08:59.784Z,8.05
2022-09-15T23:11:28.733Z,8.30
2022-09-15T23:13:56.500Z,8.10
2022-09-15T23:16:25.190Z,8.93
2022-09-15T23:18:53.703Z,8.30
2022-09-15T23:21:21.157Z,7.78
2022-09-15T23:23:49.383Z,8.27
2022-09-15T23:26:18.933Z,7.65
2022-09-15T23:28:46.787Z,7.75
2022-09-15T23:31:14.615Z,8.18
2022-09-15T23:33:42.762Z,8.68
2022-09-15T23:36:13.011Z,8.43
2022-09-15T23:38:41.909Z,8.70
2022-09-15T23:41:10.332Z,8.23
2022-09-15T23:43:37.567Z,8.73
2022-09-15T23:46:05.232Z,8.52
2022-09-15T23:48:32.709Z,9.10
2022-09-15T23:51:00.274Z,9.07
2022-09-15T23:53:27.971Z,9.50
2022-09-15T23:55:55.111Z,8.48
2022-09-15T23:58:22.241Z,9.73
